Time;durP1;ratioP1;P1;durP2;ratioP2;P2;SDS_P1;SDS_P2;PMS_P1;PMS_P2;Temp;Humidity;BMP_temperature;BMP_pressure;BME280_temperature;BME280_humidity;BME280_pressure;Samples;Min_cycle;Max_cycle;Signal;HPM_P1;HPM_P2
2022/01/01 00:01:46;;;;;;;94.90;55.15;;;;;;;;;;4995600;28;20045;-79
2022/01/01 00:04:14;;;;;;;79.80;48.63;;;;;;;;;;5013101;28;20050;-78
2022/01/01 00:06:42;;;;;;;72.90;43.97;;;;;;;;;;5013097;28;20042;-83
2022/01/01 00:09:16;;;;;;;69.25;40.33;;;;;;;;;;5013574;28;20132;-75
2022/01/01 00:11:44;;;;;;;72.10;40.90;;;;;;;;;;5017314;28;20544;-82
2022/01/01 00:14:12;;;;;;;69.63;38.45;;;;;;;;;;4999951;28;20042;-82
2022/01/01 00:16:44;;;;;;;66.50;39.00;;;;;;;;;;5000846;28;20042;-76
2022/01/01 00:19:12;;;;;;;68.05;38.30;;;;;;;;;;5017186;28;20049;-82
2022/01/01 00:21:41;;;;;;;66.82;36.97;;;;;;;;;;5016893;28;20046;-82
2022/01/01 00:24:09;;;;;;;62.15;35.85;;;;;;;;;;5016869;28;20046;-82
2022/01/01 00:26:36;;;;;;;60.83;33.20;;;;;;;;;;4998980;28;20041;-78
2022/01/01 00:29:05;;;;;;;54.08;31.38;;;;;;;;;;4999449;28;20604;-78
2022/01/01 00:31:33;;;;;;;51.60;31.60;;;;;;;;;;5016948;28;20049;-78
2022/01/01 00:34:04;;;;;;;55.00;31.05;;;;;;;;;;5017278;28;20049;-77
2022/01/01 00:36:32;;;;;;;58.13;31.63;;;;;;;;;;5016838;28;20044;-75
2022/01/01 00:39:00;;;;;;;57.83;32.47;;;;;;;;;;5016238;28;20048;-78
2022/01/01 00:41:32;;;;;;;50.20;29.40;;;;;;;;;;5016286;28;20185;-75
2022/01/01 00:44:04;;;;;;;50.13;28.83;;;;;;;;;;5016529;28;20056;-77
2022/01/01 00:46:31;;;;;;;50.72;28.02;;;;;;;;;;5017006;28;20390;-79
2022/01/01 00:48:59;;;;;;;49.05;27.55;;;;;;;;;;5016440;28;20128;-78
2022/01/01 00:51:27;;;;;;;49.83;26.77;;;;;;;;;;5016332;28;20037;-82
2022/01/01 00:53:55;;;;;;;42.28;25.60;;;;;;;;;;4999326;28;20392;-76
2022/01/01 00:56:22;;;;;;;39.50;23.83;;;;;;;;;;4982801;28;20053;-77
2022/01/01 00:58:50;;;;;;;32.33;20.88;;;;;;;;;;4999000;28;20057;-77
2022/01/01 01:01:21;;;;;;;33.17;19.95;;;;;;;;;;5016123;28;20397;-82
2022/01/01 01:03:49;;;;;;;30.88;19.30;;;;;;;;;;5015693;28;20042;-82
2022/01/01 01:06:19;;;;;;;37.05;21.60;;;;;;;;;;5016213;28;20050;-82
2022/01/01 01:08:48;;;;;;;35.00;20.63;;;;;;;;;;5016353;28;20401;-76
2022/01/01 01:11:15;;;;;;;37.92;21.95;;;;;;;;;;5015782;28;20133;-79
2022/01/01 01:13:45;;;;;;;33.15;20.45;;;;;;;;;;5015917;28;20034;-76
2022/01/01 01:16:15;;;;;;;39.22;20.67;;;;;;;;;;5016153;28;20088;-77
2022/01/01 01:18:43;;;;;;;37.30;21.13;;;;;;;;;;5015974;28;20042;-77
2022/01/01 01:21:12;;;;;;;35.08;21.45;;;;;;;;;;4997934;28;20050;-79
2022/01/01 01:23:42;;;;;;;33.33;20.80;;;;;;;;;;5015528;28;20504;-75
2022/01/01 01:26:10;;;;;;;34.28;18.92;;;;;;;;;;5015288;28;20064;-78
2022/01/01 01:28:46;;;;;;;35.92;19.80;;;;;;;;;;5015959;28;20038;-77
2022/01/01 01:31:14;;;;;;;33.33;18.10;;;;;;;;;;5015899;28;20041;-82
2022/01/01 01:33:42;;;;;;;28.58;17.38;;;;;;;;;;5015955;28;20126;-78
2022/01/01 01:36:10;;;;;;;29.10;16.50;;;;;;;;;;5015953;28;20049;-77
2022/01/01 01:38:38;;;;;;;24.80;16.00;;;;;;;;;;5015279;28;20049;-82
2022/01/01 01:41:08;;;;;;;26.73;15.32;;;;;;;;;;5015414;28;20053;-77
2022/01/01 01:43:39;;;;;;;29.73;15.02;;;;;;;;;;5015238;28;20096;-75
2022/01/01 01:46:12;;;;;;;22.73;13.75;;;;;;;;;;5015525;28;20065;-75
2022/01/01 01:48:40;;;;;;;23.35;14.23;;;;;;;;;;4998016;28;20050;-78
2022/01/01 01:51:09;;;;;;;24.70;14.05;;;;;;;;;;5015261;28;20042;-77
2022/01/01 01:53:38;;;;;;;22.98;13.43;;;;;;;;;;5015544;28;20484;-75
2022/01/01 01:56:06;;;;;;;23.75;13.93;;;;;;;;;;5015308;28;20038;-77
2022/01/01 01:58:35;;;;;;;21.17;13.55;;;;;;;;;;4997763;28;20125;-79
2022/01/01 02:03:37;;;;;;;21.77;13.52;;;;;;;;;;5014615;28;20117;-82
2022/01/01 02:06:10;;;;;;;22.50;11.93;;;;;;;;;;4998213;28;20547;-82
2022/01/01 02:08:39;;;;;;;18.75;11.05;;;;;;;;;;5015197;28;20501;-82
2022/01/01 02:11:06;;;;;;;20.48;11.93;;;;;;;;;;5015108;28;20049;-79
2022/01/01 02:18:50;;;;;;;21.73;10.23;;;;;;;;;;5014871;28;20065;-82
2022/01/01 02:21:19;;;;;;;14.05;9.15;;;;;;;;;;5014699;28;20046;-79
2022/01/01 02:23:47;;;;;;;16.05;9.88;;;;;;;;;;5014581;28;20046;-82
2022/01/01 02:26:16;;;;;;;17.35;9.73;;;;;;;;;;5014515;28;20057;-82
2022/01/01 02:28:44;;;;;;;14.43;8.63;;;;;;;;;;5014703;28;20049;-76
2022/01/01 02:31:15;;;;;;;14.68;9.07;;;;;;;;;;5014658;28;20050;-82
2022/01/01 02:33:44;;;;;;;14.82;8.40;;;;;;;;;;5013772;28;20042;-75
2022/01/01 02:36:12;;;;;;;16.05;9.05;;;;;;;;;;4996843;28;20049;-75
2022/01/01 02:38:40;;;;;;;16.02;9.10;;;;;;;;;;5014252;28;20048;-81
2022/01/01 02:41:07;;;;;;;15.60;9.30;;;;;;;;;;5014394;28;20050;-79
2022/01/01 02:43:45;;;;;;;14.57;8.68;;;;;;;;;;4997072;28;20056;-77
2022/01/01 02:46:14;;;;;;;15.10;8.73;;;;;;;;;;5014379;28;20049;-79
2022/01/01 02:48:45;;;;;;;14.18;8.00;;;;;;;;;;5013963;28;20077;-82
2022/01/01 02:51:13;;;;;;;13.73;7.80;;;;;;;;;;5013868;28;20046;-82
2022/01/01 02:53:41;;;;;;;11.07;7.07;;;;;;;;;;4996734;28;20042;-78
2022/01/01 02:56:08;;;;;;;13.15;6.88;;;;;;;;;;5014393;28;20042;-75
2022/01/01 02:58:38;;;;;;;9.27;5.63;;;;;;;;;;5013748;28;20041;-78
2022/01/01 03:01:09;;;;;;;12.93;6.13;;;;;;;;;;4997291;28;20129;-78
2022/01/01 03:03:38;;;;;;;10.23;5.80;;;;;;;;;;5013647;28;20434;-78
2022/01/01 03:06:06;;;;;;;7.95;5.63;;;;;;;;;;4996654;28;20042;-78
2022/01/01 03:08:34;;;;;;;8.95;5.20;;;;;;;;;;4996583;28;20060;-75
2022/01/01 03:11:02;;;;;;;8.75;4.95;;;;;;;;;;5013923;28;20504;-77
2022/01/01 03:13:30;;;;;;;6.50;4.45;;;;;;;;;;5014082;28;20050;-78
2022/01/01 03:15:58;;;;;;;7.63;4.95;;;;;;;;;;5013562;28;20045;-78
2022/01/01 03:18:25;;;;;;;8.10;4.68;;;;;;;;;;5013574;28;20077;-78
2022/01/01 03:20:53;;;;;;;6.80;4.68;;;;;;;;;;5013603;28;20052;-82
2022/01/01 03:23:21;;;;;;;8.95;4.70;;;;;;;;;;5013719;28;20084;-75
2022/01/01 03:25:49;;;;;;;8.35;4.95;;;;;;;;;;5013787;28;20045;-77
2022/01/01 03:28:19;;;;;;;5.55;4.28;;;;;;;;;;5013384;28;20517;-82
2022/01/01 03:30:47;;;;;;;6.95;4.10;;;;;;;;;;5013666;28;20046;-78
2022/01/01 03:33:14;;;;;;;6.63;4.38;;;;;;;;;;5013951;28;20038;-76
2022/01/01 03:35:42;;;;;;;6.32;4.25;;;;;;;;;;5013637;28;20128;-77
2022/01/01 03:38:10;;;;;;;6.63;4.07;;;;;;;;;;5013293;28;20441;-76
2022/01/01 03:40:39;;;;;;;6.22;3.80;;;;;;;;;;5013186;28;20046;-76
2022/01/01 03:43:07;;;;;;;7.22;4.20;;;;;;;;;;4995672;28;20053;-77
2022/01/01 03:45:38;;;;;;;12.30;4.50;;;;;;;;;;5013296;28;20041;-78
2022/01/01 03:48:07;;;;;;;7.88;4.28;;;;;;;;;;5013724;28;20046;-82
2022/01/01 03:50:35;;;;;;;7.60;4.20;;;;;;;;;;4995759;28;20048;-82
2022/01/01 03:53:03;;;;;;;5.55;3.88;;;;;;;;;;5013599;28;20556;-76
2022/01/01 03:55:31;;;;;;;7.75;4.03;;;;;;;;;;5013432;28;20076;-82
2022/01/01 03:58:01;;;;;;;5.80;3.78;;;;;;;;;;5013214;28;20116;-76
2022/01/01 04:00:29;;;;;;;7.18;3.90;;;;;;;;;;5013230;28;20120;-77
2022/01/01 04:03:06;;;;;;;6.88;4.05;;;;;;;;;;5012854;28;20129;-78
2022/01/01 04:05:36;;;;;;;5.72;3.95;;;;;;;;;;5013418;28;20050;-76
2022/01/01 04:08:04;;;;;;;6.80;3.60;;;;;;;;;;5013311;28;20041;-75
2022/01/01 04:10:32;;;;;;;6.38;3.72;;;;;;;;;;5013513;28;20042;-75
2022/01/01 04:13:06;;;;;;;7.53;3.90;;;;;;;;;;4995515;28;20042;-78
2022/01/01 04:15:34;;;;;;;5.40;3.40;;;;;;;;;;4995534;28;20046;-79
2022/01/01 04:18:08;;;;;;;6.72;4.10;;;;;;;;;;4995703;28;20081;-77
2022/01/01 04:20:41;;;;;;;6.57;3.80;;;;;;;;;;4996460;28;20038;-77
2022/01/01 04:23:10;;;;;;;9.98;4.15;;;;;;;;;;5013018;28;20046;-75
2022/01/01 04:25:38;;;;;;;5.78;3.22;;;;;;;;;;4995330;28;20038;-77
2022/01/01 04:28:06;;;;;;;6.80;3.55;;;;;;;;;;5012789;28;20057;-76
2022/01/01 04:30:34;;;;;;;4.65;3.25;;;;;;;;;;4979507;28;20398;-73
2022/01/01 04:33:01;;;;;;;7.90;3.33;;;;;;;;;;5013219;28;20038;-77
2022/01/01 04:35:30;;;;;;;5.35;3.55;;;;;;;;;;4995445;28;20042;-78
2022/01/01 04:37:59;;;;;;;7.60;3.60;;;;;;;;;;5012922;28;20053;-78
2022/01/01 04:40:26;;;;;;;5.53;3.40;;;;;;;;;;4994932;28;20053;-78
2022/01/01 04:42:55;;;;;;;4.95;3.20;;;;;;;;;;4995338;28;20144;-77
2022/01/01 04:45:23;;;;;;;6.28;3.50;;;;;;;;;;5013093;28;20052;-78
2022/01/01 04:47:50;;;;;;;4.45;3.10;;;;;;;;;;5012848;28;20045;-82
2022/01/01 04:50:18;;;;;;;7.82;3.30;;;;;;;;;;5012995;28;20050;-82
2022/01/01 04:52:46;;;;;;;7.95;3.30;;;;;;;;;;5012907;28;20050;-75
2022/01/01 04:55:15;;;;;;;4.00;3.15;;;;;;;;;;5013234;28;20042;-77
2022/01/01 04:57:43;;;;;;;6.55;3.78;;;;;;;;;;5016192;28;20046;-76
2022/01/01 05:00:10;;;;;;;8.95;3.72;;;;;;;;;;4999056;28;20034;-75
2022/01/01 05:02:38;;;;;;;5.25;3.22;;;;;;;;;;5015874;28;20120;-77
2022/01/01 05:05:07;;;;;;;5.95;3.55;;;;;;;;;;5016242;28;20065;-78
2022/01/01 05:07:35;;;;;;;7.00;3.20;;;;;;;;;;4998734;28;20133;-79
2022/01/01 05:10:02;;;;;;;5.15;3.28;;;;;;;;;;5016126;28;20045;-82
2022/01/01 05:12:29;;;;;;;5.88;3.53;;;;;;;;;;5016153;28;20072;-75
2022/01/01 05:14:57;;;;;;;7.00;3.70;;;;;;;;;;4982230;28;20042;-75
2022/01/01 05:17:24;;;;;;;6.95;3.20;;;;;;;;;;5015592;28;20064;-78
2022/01/01 05:19:52;;;;;;;5.47;3.20;;;;;;;;;;4998332;28;20038;-75
2022/01/01 05:22:19;;;;;;;5.30;3.28;;;;;;;;;;4998311;28;20041;-75
2022/01/01 05:24:47;;;;;;;6.05;2.85;;;;;;;;;;5015565;28;20042;-77
2022/01/01 05:27:16;;;;;;;8.60;3.53;;;;;;;;;;5015406;28;20468;-75
2022/01/01 05:29:44;;;;;;;8.95;3.95;;;;;;;;;;5015858;28;20050;-78
2022/01/01 05:32:13;;;;;;;6.80;3.33;;;;;;;;;;5015687;28;20405;-78
2022/01/01 05:34:41;;;;;;;6.53;3.13;;;;;;;;;;4998402;28;20069;-82
2022/01/01 05:37:12;;;;;;;8.57;3.55;;;;;;;;;;5015672;28;20046;-78
2022/01/01 05:39:40;;;;;;;9.48;3.30;;;;;;;;;;5015398;28;20034;-77
2022/01/01 05:42:09;;;;;;;7.22;3.53;;;;;;;;;;5015486;28;20127;-78
2022/01/01 05:44:37;;;;;;;6.07;3.55;;;;;;;;;;5015649;28;20121;-82
2022/01/01 05:47:05;;;;;;;5.90;3.30;;;;;;;;;;4997917;28;20057;-81
2022/01/01 05:49:36;;;;;;;5.18;3.10;;;;;;;;;;5015611;28;20050;-75
2022/01/01 05:52:05;;;;;;;7.22;3.63;;;;;;;;;;4997797;28;20052;-82
2022/01/01 05:54:34;;;;;;;5.63;3.20;;;;;;;;;;4997849;28;20417;-78
2022/01/01 05:57:02;;;;;;;8.95;3.17;;;;;;;;;;4997863;28;20051;-78
2022/01/01 05:59:29;;;;;;;6.22;3.35;;;;;;;;;;4997759;28;20410;-82
2022/01/01 06:01:57;;;;;;;4.88;3.20;;;;;;;;;;4998047;28;20042;-78
2022/01/01 06:04:26;;;;;;;6.88;3.60;;;;;;;;;;5014971;28;20069;-75
2022/01/01 06:06:56;;;;;;;6.93;3.63;;;;;;;;;;4996836;28;20052;-82
2022/01/01 06:09:23;;;;;;;5.28;3.38;;;;;;;;;;5015071;28;20377;-82
2022/01/01 06:11:51;;;;;;;3.80;2.70;;;;;;;;;;4997867;28;20044;-75
2022/01/01 06:14:20;;;;;;;5.15;2.75;;;;;;;;;;5015457;28;20048;-78
2022/01/01 06:16:48;;;;;;;6.68;2.40;;;;;;;;;;5014541;28;20049;-82
2022/01/01 06:19:16;;;;;;;2.65;2.22;;;;;;;;;;5014944;28;20041;-76
2022/01/01 06:21:44;;;;;;;6.03;2.38;;;;;;;;;;5014905;28;20141;-75
2022/01/01 06:24:13;;;;;;;3.60;2.47;;;;;;;;;;4997474;28;20065;-77
2022/01/01 06:26:41;;;;;;;3.80;2.30;;;;;;;;;;4997032;28;20046;-79
2022/01/01 06:29:10;;;;;;;6.55;2.28;;;;;;;;;;4997813;28;20061;-78
2022/01/01 06:31:41;;;;;;;3.50;2.15;;;;;;;;;;5015189;28;20048;-82
2022/01/01 06:34:10;;;;;;;2.78;2.35;;;;;;;;;;4997740;28;20048;-78
2022/01/01 06:36:41;;;;;;;2.60;2.00;;;;;;;;;;5014500;28;20038;-79
2022/01/01 06:39:09;;;;;;;2.92;2.10;;;;;;;;;;5014392;28;20128;-75
2022/01/01 06:41:38;;;;;;;3.22;2.22;;;;;;;;;;5014406;28;20545;-79
2022/01/01 06:44:06;;;;;;;3.15;2.50;;;;;;;;;;5014261;28;20073;-79
2022/01/01 06:46:34;;;;;;;3.20;2.17;;;;;;;;;;4996876;28;20067;-83
2022/01/01 06:49:02;;;;;;;5.55;2.25;;;;;;;;;;5014345;28;20637;-78
2022/01/01 06:51:32;;;;;;;2.78;2.20;;;;;;;;;;5014221;28;20042;-75
2022/01/01 06:53:59;;;;;;;3.50;2.50;;;;;;;;;;5014607;28;20038;-76
2022/01/01 06:56:28;;;;;;;6.07;3.10;;;;;;;;;;5014298;28;20413;-78
2022/01/01 06:58:56;;;;;;;5.00;2.70;;;;;;;;;;5014601;28;20042;-80
2022/01/01 07:01:26;;;;;;;5.05;2.80;;;;;;;;;;5014098;28;20042;-73
2022/01/01 07:03:54;;;;;;;6.65;2.80;;;;;;;;;;5013866;28;20052;-77
2022/01/01 07:06:22;;;;;;;3.28;2.30;;;;;;;;;;5013738;28;20108;-73
2022/01/01 07:08:50;;;;;;;4.07;2.70;;;;;;;;;;5013905;28;20141;-80
2022/01/01 07:11:18;;;;;;;4.60;3.42;;;;;;;;;;5013993;28;20045;-76
2022/01/01 07:13:46;;;;;;;8.68;4.20;;;;;;;;;;4996624;28;20050;-73
2022/01/01 07:16:24;;;;;;;6.97;4.07;;;;;;;;;;5013300;28;20038;-73
2022/01/01 07:18:51;;;;;;;6.90;3.88;;;;;;;;;;5013554;28;20426;-76
2022/01/01 07:21:19;;;;;;;6.43;4.38;;;;;;;;;;5013656;28;20038;-81
2022/01/01 07:23:48;;;;;;;8.68;4.20;;;;;;;;;;5013861;28;20092;-80
2022/01/01 07:26:20;;;;;;;8.02;4.97;;;;;;;;;;4996084;28;20037;-73
2022/01/01 07:28:48;;;;;;;7.30;4.70;;;;;;;;;;5013379;28;20116;-80
2022/01/01 07:31:18;;;;;;;12.73;4.57;;;;;;;;;;5013727;28;20041;-73
2022/01/01 07:33:45;;;;;;;9.20;4.50;;;;;;;;;;5013942;28;20088;-76
2022/01/01 07:36:13;;;;;;;7.32;4.47;;;;;;;;;;5013334;28;20118;-78
2022/01/01 07:38:40;;;;;;;5.65;3.80;;;;;;;;;;5013634;28;20358;-74
2022/01/01 07:41:08;;;;;;;8.07;4.32;;;;;;;;;;5013167;28;20052;-74
2022/01/01 07:43:36;;;;;;;8.57;4.13;;;;;;;;;;5013134;28;20053;-74
2022/01/01 07:46:06;;;;;;;5.75;3.78;;;;;;;;;;5013621;28;20496;-83
2022/01/01 07:48:33;;;;;;;5.93;3.63;;;;;;;;;;4996281;28;20061;-77
2022/01/01 07:51:01;;;;;;;8.80;3.50;;;;;;;;;;5012803;28;20054;-77
2022/01/01 07:53:28;;;;;;;8.15;5.28;;;;;;;;;;5013658;28;20046;-80
2022/01/01 07:55:56;;;;;;;7.80;4.53;;;;;;;;;;5013433;28;20045;-75
2022/01/01 07:58:28;;;;;;;6.43;3.80;;;;;;;;;;5013125;28;20069;-74
2022/01/01 08:00:55;;;;;;;8.90;4.15;;;;;;;;;;4996015;28;20065;-77
2022/01/01 08:03:23;;;;;;;6.55;3.90;;;;;;;;;;5012752;28;20045;-80
2022/01/01 08:05:51;;;;;;;9.32;3.70;;;;;;;;;;5012971;28;20061;-80
2022/01/01 08:08:19;;;;;;;6.68;3.78;;;;;;;;;;5012940;28;20046;-80
2022/01/01 08:10:47;;;;;;;7.45;3.85;;;;;;;;;;5013324;28;20129;-82
2022/01/01 08:13:22;;;;;;;7.38;3.95;;;;;;;;;;5012860;28;20041;-78
2022/01/01 08:15:51;;;;;;;6.55;3.85;;;;;;;;;;4995334;28;20480;-82
2022/01/01 08:18:19;;;;;;;10.82;4.93;;;;;;;;;;5012856;28;20049;-76
2022/01/01 08:20:47;;;;;;;8.27;4.88;;;;;;;;;;4995718;28;20042;-78
2022/01/01 08:23:16;;;;;;;10.43;5.07;;;;;;;;;;5013156;28;20124;-79
2022/01/01 08:25:44;;;;;;;11.68;5.30;;;;;;;;;;5013193;28;20042;-76
2022/01/01 08:28:15;;;;;;;10.80;5.70;;;;;;;;;;5013087;28;20061;-76
2022/01/01 08:30:45;;;;;;;13.63;5.40;;;;;;;;;;5014296;28;20053;-81
2022/01/01 08:33:13;;;;;;;12.20;5.75;;;;;;;;;;5017021;28;20489;-78
2022/01/01 08:35:41;;;;;;;12.63;6.30;;;;;;;;;;5016978;28;20042;-79
2022/01/01 08:38:09;;;;;;;11.55;5.72;;;;;;;;;;5016695;28;20038;-79
2022/01/01 08:40:37;;;;;;;10.68;5.40;;;;;;;;;;4999092;28;20042;-79
2022/01/01 08:43:05;;;;;;;14.23;6.13;;;;;;;;;;5016629;28;20105;-79
2022/01/01 08:45:33;;;;;;;10.73;5.30;;;;;;;;;;4999286;28;20042;-80
2022/01/01 08:48:02;;;;;;;11.88;5.28;;;;;;;;;;5016512;28;20100;-76
2022/01/01 08:50:29;;;;;;;10.63;5.95;;;;;;;;;;4999176;28;20046;-78
2022/01/01 08:52:58;;;;;;;11.88;5.68;;;;;;;;;;5015987;28;20042;-79
2022/01/01 08:55:29;;;;;;;11.60;5.70;;;;;;;;;;5016639;28;20046;-79
2022/01/01 08:57:56;;;;;;;10.77;5.63;;;;;;;;;;5016323;28;20386;-79
2022/01/01 09:00:46;;;;;;;13.75;5.88;;;;;;;;;;5001997;28;20038;-75
2022/01/01 09:03:14;;;;;;;13.50;5.65;;;;;;;;;;5015857;28;20061;-77
2022/01/01 09:05:43;;;;;;;9.80;5.35;;;;;;;;;;5016119;28;20391;-73
2022/01/01 09:08:31;;;;;;;12.73;5.93;;;;;;;;;;4998469;28;20049;-77
2022/01/01 09:10:59;;;;;;;10.73;5.90;;;;;;;;;;5015872;28;20053;-75
2022/01/01 09:13:27;;;;;;;12.95;5.60;;;;;;;;;;5016420;28;20462;-80
2022/01/01 09:15:54;;;;;;;11.85;5.60;;;;;;;;;;4998918;28;20038;-74
2022/01/01 09:18:22;;;;;;;12.57;6.55;;;;;;;;;;5015876;28;20038;-80
2022/01/01 09:20:50;;;;;;;11.02;6.05;;;;;;;;;;5016221;28;20037;-75
2022/01/01 09:23:21;;;;;;;13.90;6.47;;;;;;;;;;5015926;28;20413;-77
2022/01/01 09:25:50;;;;;;;9.15;5.35;;;;;;;;;;5015811;28;20125;-76
2022/01/01 09:28:18;;;;;;;11.25;6.40;;;;;;;;;;5015546;28;20042;-80
2022/01/01 09:30:48;;;;;;;12.13;6.38;;;;;;;;;;5015882;28;20042;-76
2022/01/01 09:33:16;;;;;;;12.63;6.13;;;;;;;;;;5015768;28;20041;-78
2022/01/01 09:35:43;;;;;;;11.05;5.75;;;;;;;;;;4998099;28;20473;-80
2022/01/01 09:38:14;;;;;;;13.15;5.90;;;;;;;;;;5015345;28;20041;-77
2022/01/01 09:40:41;;;;;;;8.60;4.97;;;;;;;;;;5014789;28;20121;-75
2022/01/01 09:43:13;;;;;;;15.45;5.60;;;;;;;;;;5015271;28;20072;-80
2022/01/01 09:45:47;;;;;;;17.95;5.82;;;;;;;;;;5015421;28;20129;-80
2022/01/01 09:48:19;;;;;;;10.48;5.20;;;;;;;;;;4998055;28;20052;-82
2022/01/01 09:50:48;;;;;;;10.83;5.03;;;;;;;;;;4997459;28;20132;-80
2022/01/01 09:53:17;;;;;;;12.55;5.07;;;;;;;;;;4997621;28;20284;-79
2022/01/01 09:55:48;;;;;;;11.15;4.85;;;;;;;;;;5015217;28;20113;-78
2022/01/01 09:58:17;;;;;;;14.05;5.35;;;;;;;;;;4997617;28;20413;-74
2022/01/01 10:00:44;;;;;;;10.05;4.82;;;;;;;;;;4981410;28;20052;-78
2022/01/01 10:03:13;;;;;;;11.32;4.70;;;;;;;;;;4997238;28;20084;-77
2022/01/01 10:05:56;;;;;;;7.97;4.25;;;;;;;;;;5015150;28;20048;-76
2022/01/01 10:08:25;;;;;;;13.27;4.93;;;;;;;;;;5014828;28;20045;-75
2022/01/01 10:10:53;;;;;;;8.85;4.30;;;;;;;;;;5014973;28;20111;-75
2022/01/01 10:13:26;;;;;;;9.57;4.15;;;;;;;;;;4997910;28;20038;-79
2022/01/01 10:15:56;;;;;;;10.40;3.75;;;;;;;;;;4997034;28;20070;-74
2022/01/01 10:18:31;;;;;;;8.57;4.03;;;;;;;;;;4997135;28;20045;-80
2022/01/01 10:21:01;;;;;;;8.55;4.10;;;;;;;;;;4997072;28;20104;-75
2022/01/01 10:23:30;;;;;;;15.00;5.18;;;;;;;;;;5014827;28;20049;-78
2022/01/01 10:29:03;;;;;;;6.50;3.78;;;;;;;;;;5014379;28;20497;-78
2022/01/01 10:31:35;;;;;;;10.20;4.30;;;;;;;;;;4997179;28;20054;-76
2022/01/01 10:34:10;;;;;;;10.30;4.70;;;;;;;;;;5014746;28;20048;-80
2022/01/01 10:36:38;;;;;;;9.75;4.20;;;;;;;;;;4997018;28;20048;-80
2022/01/01 10:39:12;;;;;;;10.93;4.22;;;;;;;;;;5014248;28;20030;-80
2022/01/01 10:41:45;;;;;;;7.43;3.58;;;;;;;;;;5033989;23;20485;-75
2022/01/01 10:44:12;;;;;;;;;;;;;;;;;;5034552;28;20046;-75
2022/01/01 10:46:40;;;;;;;7.70;3.88;;;;;;;;;;5034160;28;19920;-74
2022/01/01 10:49:37;;;;;;;7.43;4.40;;;;;;;;;;5016372;28;20060;-78
2022/01/01 10:52:27;;;;;;;5.80;3.80;;;;;;;;;;5033827;28;20056;-77
2022/01/01 10:54:59;;;;;;;7.40;4.13;;;;;;;;;;5033100;28;20095;-77
2022/01/01 10:57:29;;;;;;;8.50;4.22;;;;;;;;;;5033582;28;20037;-75
2022/01/01 11:00:23;;;;;;;10.65;4.32;;;;;;;;;;5015443;28;20071;-77
2022/01/01 11:02:55;;;;;;;9.32;4.30;;;;;;;;;;5029939;28;20132;-80
2022/01/01 11:05:32;;;;;;;8.50;4.33;;;;;;;;;;5033383;28;20037;-75
2022/01/01 11:08:03;;;;;;;7.80;4.10;;;;;;;;;;5016225;28;20279;-78
2022/01/01 11:10:31;;;;;;;10.50;4.43;;;;;;;;;;5034094;28;20129;-75
2022/01/01 11:12:59;;;;;;;10.55;4.50;;;;;;;;;;5033448;28;20045;-74
2022/01/01 11:15:29;;;;;;;14.93;4.28;;;;;;;;;;5033354;28;20064;-74
2022/01/01 11:17:59;;;;;;;10.82;3.97;;;;;;;;;;5033483;28;20069;-80
2022/01/01 11:20:30;;;;;;;7.00;3.67;;;;;;;;;;5033234;28;20042;-76
2022/01/01 11:22:58;;;;;;;6.57;3.63;;;;;;;;;;5016379;28;20049;-78
2022/01/01 11:25:25;;;;;;;10.27;3.65;;;;;;;;;;4999786;28;20040;-78
2022/01/01 11:27:53;;;;;;;9.90;3.90;;;;;;;;;;5015249;28;20037;-80
2022/01/01 11:30:25;;;;;;;12.10;4.20;;;;;;;;;;5016165;28;20042;-76
2022/01/01 11:32:59;;;;;;;6.88;3.53;;;;;;;;;;5033615;28;20063;-75
2022/01/01 11:35:30;;;;;;;9.70;3.78;;;;;;;;;;5033153;28;20056;-77
2022/01/01 11:38:02;;;;;;;12.57;4.15;;;;;;;;;;5016189;28;20120;-74
2022/01/01 11:40:41;;;;;;;10.68;4.57;;;;;;;;;;5032671;28;20041;-79
2022/01/01 11:43:28;;;;;;;7.07;4.25;;;;;;;;;;5033369;28;20045;-78
2022/01/01 11:46:06;;;;;;;10.00;4.35;;;;;;;;;;5033497;28;20099;-80
2022/01/01 11:48:41;;;;;;;10.05;5.28;;;;;;;;;;5015837;28;20047;-75
2022/01/01 11:51:19;;;;;;;8.73;4.50;;;;;;;;;;5016103;28;20493;-81
2022/01/01 11:54:07;;;;;;;12.85;5.10;;;;;;;;;;5033461;28;20414;-77
2022/01/01 11:56:49;;;;;;;10.60;4.90;;;;;;;;;;5032967;28;20049;-77
2022/01/01 11:59:18;;;;;;;12.88;5.45;;;;;;;;;;5032870;28;20041;-77
2022/01/01 12:01:47;;;;;;;11.48;5.13;;;;;;;;;;5015358;28;20041;-80
2022/01/01 12:04:32;;;;;;;9.70;4.28;;;;;;;;;;5033088;28;20045;-78
2022/01/01 12:07:01;;;;;;;12.30;4.45;;;;;;;;;;5018780;28;20049;-76
2022/01/01 12:09:29;;;;;;;8.68;3.85;;;;;;;;;;5037187;28;20041;-79
2022/01/01 12:12:00;;;;;;;11.93;4.20;;;;;;;;;;5019769;28;20045;-74
2022/01/01 12:14:31;;;;;;;14.18;4.43;;;;;;;;;;5036837;28;20153;-78
2022/01/01 12:17:02;;;;;;;12.10;4.35;;;;;;;;;;5036792;28;20552;-80
2022/01/01 12:19:36;;;;;;;16.00;4.25;;;;;;;;;;5036857;28;20521;-80
2022/01/01 12:22:07;;;;;;;14.65;4.32;;;;;;;;;;5019353;28;20041;-79
2022/01/01 12:24:38;;;;;;;11.93;4.13;;;;;;;;;;5036571;28;20075;-78
2022/01/01 12:27:10;;;;;;;17.17;4.13;;;;;;;;;;5036913;28;20511;-76
2022/01/01 12:29:40;;;;;;;12.35;4.00;;;;;;;;;;5019546;28;20088;-79
2022/01/01 12:32:10;;;;;;;11.02;3.72;;;;;;;;;;5036919;28;20060;-78
2022/01/01 12:34:37;;;;;;;11.40;4.00;;;;;;;;;;5036899;28;20048;-77
2022/01/01 12:37:07;;;;;;;13.55;4.90;;;;;;;;;;5036589;28;20061;-81
2022/01/01 12:39:54;;;;;;;14.88;4.10;;;;;;;;;;5036541;28;20515;-81
2022/01/01 12:42:35;;;;;;;15.63;4.30;;;;;;;;;;5036544;28;20081;-79
2022/01/01 12:45:08;;;;;;;11.00;4.20;;;;;;;;;;5036695;28;20047;-78
2022/01/01 12:47:38;;;;;;;17.83;4.53;;;;;;;;;;5019263;28;20049;-78
2022/01/01 12:50:06;;;;;;;15.13;4.07;;;;;;;;;;5036695;28;20497;-81
2022/01/01 12:52:34;;;;;;;15.75;4.47;;;;;;;;;;5036286;28;20037;-79
2022/01/01 12:55:03;;;;;;;11.95;3.95;;;;;;;;;;5036336;28;20046;-79
2022/01/01 12:57:34;;;;;;;15.63;4.68;;;;;;;;;;5036257;28;20075;-76
2022/01/01 13:00:20;;;;;;;10.90;3.90;;;;;;;;;;5036252;28;20396;-79
2022/01/01 13:03:00;;;;;;;12.15;4.10;;;;;;;;;;5036607;28;20046;-76
2022/01/01 13:05:28;;;;;;;10.88;3.90;;;;;;;;;;5036174;28;20052;-79
2022/01/01 13:07:57;;;;;;;12.30;4.20;;;;;;;;;;5036465;28;20045;-82
2022/01/01 13:10:25;;;;;;;14.48;5.20;;;;;;;;;;5036334;28;20042;-80
2022/01/01 13:12:54;;;;;;;15.85;4.30;;;;;;;;;;5036314;28;20072;-80
2022/01/01 13:15:24;;;;;;;10.00;4.38;;;;;;;;;;5035684;28;20073;-74
2022/01/01 13:17:53;;;;;;;13.68;4.32;;;;;;;;;;5017636;28;20042;-76
2022/01/01 13:20:21;;;;;;;11.63;4.30;;;;;;;;;;5035787;28;20137;-76
2022/01/01 13:22:48;;;;;;;11.52;3.75;;;;;;;;;;5018028;28;20041;-75
2022/01/01 13:25:16;;;;;;;16.25;4.60;;;;;;;;;;5017688;28;20081;-78
2022/01/01 13:27:45;;;;;;;12.13;4.00;;;;;;;;;;5035602;28;20045;-74
2022/01/01 13:30:15;;;;;;;12.35;3.97;;;;;;;;;;5035578;28;20050;-74
2022/01/01 13:32:42;;;;;;;18.30;4.47;;;;;;;;;;5035481;28;20120;-73
2022/01/01 13:35:09;;;;;;;14.10;4.22;;;;;;;;;;5034986;28;20041;-79
2022/01/01 13:37:41;;;;;;;14.02;4.45;;;;;;;;;;5035339;28;20467;-79
2022/01/01 13:40:17;;;;;;;12.05;3.95;;;;;;;;;;5034874;28;20037;-77
2022/01/01 13:42:50;;;;;;;17.88;4.22;;;;;;;;;;5035302;28;20063;-82
2022/01/01 13:45:24;;;;;;;13.15;4.32;;;;;;;;;;5017664;28;20138;-82
2022/01/01 13:47:53;;;;;;;16.38;4.13;;;;;;;;;;5035483;28;20084;-76
2022/01/01 13:50:21;;;;;;;12.85;3.72;;;;;;;;;;5035421;28;20396;-82
2022/01/01 13:52:58;;;;;;;12.35;3.53;;;;;;;;;;5035425;28;20112;-78
2022/01/01 13:55:28;;;;;;;13.63;3.58;;;;;;;;;;5018294;28;20088;-76
2022/01/01 13:57:59;;;;;;;9.68;3.22;;;;;;;;;;5034983;28;20087;-79
2022/01/01 14:00:29;;;;;;;13.45;3.30;;;;;;;;;;5035259;28;20068;-76
2022/01/01 14:02:57;;;;;;;11.68;3.33;;;;;;;;;;5017352;28;20029;-80
2022/01/01 14:05:28;;;;;;;11.48;3.67;;;;;;;;;;5034968;28;20055;-80
2022/01/01 14:08:12;;;;;;;10.18;3.60;;;;;;;;;;5034860;28;20049;-76
2022/01/01 14:10:42;;;;;;;11.25;3.67;;;;;;;;;;5035326;28;20045;-77
2022/01/01 14:13:10;;;;;;;12.98;3.85;;;;;;;;;;5017667;28;20045;-76
2022/01/01 14:15:39;;;;;;;18.55;3.88;;;;;;;;;;5034353;28;20041;-77
2022/01/01 14:18:07;;;;;;;14.45;4.28;;;;;;;;;;5034635;28;20040;-80
2022/01/01 14:20:52;;;;;;;12.45;4.40;;;;;;;;;;5026563;28;20052;-78
2022/01/01 14:23:24;;;;;;;13.57;3.53;;;;;;;;;;5034542;28;20037;-82
2022/01/01 14:25:57;;;;;;;11.77;3.07;;;;;;;;;;5034576;28;20128;-78
2022/01/01 14:28:24;;;;;;;;;;;;;;;;;;5034009;28;20048;-76
2022/01/01 14:30:54;;;;;;;11.48;3.75;;;;;;;;;;5034669;28;19921;-78
2022/01/01 14:33:24;;;;;;;12.10;3.42;;;;;;;;;;5034717;28;20120;-76
2022/01/01 14:35:51;;;;;;;12.80;3.42;;;;;;;;;;5034174;28;20055;-78
2022/01/01 14:38:19;;;;;;;17.58;3.55;;;;;;;;;;5034373;28;20091;-76
2022/01/01 14:40:49;;;;;;;17.25;4.50;;;;;;;;;;5033908;28;20050;-80
2022/01/01 14:43:16;;;;;;;19.05;4.20;;;;;;;;;;5034343;28;20044;-78
2022/01/01 14:45:44;;;;;;;15.27;4.28;;;;;;;;;;5034243;28;20056;-76
2022/01/01 14:48:30;;;;;;;16.85;4.70;;;;;;;;;;5016740;28;20041;-78
2022/01/01 14:51:03;;;;;;;17.50;4.28;;;;;;;;;;5033850;28;20125;-76
2022/01/01 14:53:52;;;;;;;17.92;4.20;;;;;;;;;;5033595;28;20046;-76
2022/01/01 14:56:38;;;;;;;19.42;4.28;;;;;;;;;;5033615;28;20061;-80
2022/01/01 14:59:08;;;;;;;11.30;3.80;;;;;;;;;;5034052;28;20038;-76
2022/01/01 15:01:36;;;;;;;12.82;3.85;;;;;;;;;;5016182;28;20041;-77